Time;durP1;ratioP1;P1;durP2;ratioP2;P2;SDS_P1;SDS_P2;PMS_P1;PMS_P2;Temp;Humidity;BMP_temperature;BMP_pressure;BME280_temperature;BME280_humidity;BME280_pressure;Samples;Min_cycle;Max_cycle;Signal;HPM_P1;HPM_P2
2023/11/23 00:00:48;;;;;;;;;;;;;;;;;;1904902;28;7009;-65
2023/11/23 00:01:47;;;;;;;;;;;;;;;;;;1903078;28;7050;-65
2023/11/23 00:02:45;;;;;;;;;;;;;;;;;;1902700;28;8038;-65
2023/11/23 00:03:42;;;;;;;;;;;;;;;;;;1903785;28;7008;-66
2023/11/23 00:04:40;;;;;;;;;;;;;;;;;;1903797;28;7009;-65
2023/11/23 00:05:37;;;;;;;;;;;;;;;;;;1903657;28;7037;-65
2023/11/23 00:06:34;;;;;;;;;;;;;;;;;;1904100;28;7009;-65
2023/11/23 00:07:32;;;;;;;;;;;;;;;;;;1904315;28;7044;-65
2023/11/23 00:08:29;;;;;;;;;;;;;;;;;;1904117;28;7120;-66
2023/11/23 00:09:27;;;;;;;;;;;;;;;;;;1904541;28;7962;-65
2023/11/23 00:10:24;;;;;;;;;;;;;;;;;;1904231;28;7142;-65
2023/11/23 00:11:23;;;;;;;;;;;;;;;;;;1903582;28;7029;-65
2023/11/23 00:12:21;;;;;;;;;;;;;;;;;;1903508;28;7009;-65
2023/11/23 00:13:18;;;;;;;;;;;;;;;;;;1903949;28;7039;-65
2023/11/23 00:14:16;;;;;;;;;;;;;;;;;;1904806;28;7005;-65
2023/11/23 00:15:13;;;;;;;;;;;;;;;;;;1903594;28;7029;-66
2023/11/23 00:16:12;;;;;;;;;;;;;;;;;;1903895;28;8037;-65
2023/11/23 00:17:09;;;;;;;;;;;;;;;;;;1903525;28;7009;-65
2023/11/23 00:18:07;;;;;;;;;;;;;;;;;;1904054;28;7108;-65
2023/11/23 00:19:05;;;;;;;;;;;;;;;;;;1903705;28;7321;-65
2023/11/23 00:20:03;;;;;;;;;;;;;;;;;;1902048;28;8105;-66
2023/11/23 00:21:00;;;;;;;;;;;;;;;;;;1902268;28;7021;-65
2023/11/23 00:21:58;;;;;;;;;;;;;;;;;;1904190;28;7216;-66
2023/11/23 00:22:57;;;;;;;;;;;;;;;;;;1903946;28;7042;-65
2023/11/23 00:23:56;;;;;;;;;;;;;;;;;;1903252;28;7130;-65
2023/11/23 00:24:56;;;;;;;;;;;;;;;;;;1904338;28;7120;-65
2023/11/23 00:25:54;;;;;;;;;;;;;;;;;;1904190;28;7148;-65
2023/11/23 00:26:53;;;;;;;;;;;;;;;;;;1904265;28;7013;-65
2023/11/23 00:27:52;;;;;;;;;;;;;;;;;;1903689;28;7012;-65
2023/11/23 00:28:49;;;;;;;;;;;;;;;;;;1905589;28;7299;-65
2023/11/23 00:29:46;;;;;;;;;;;;;;;;;;1906250;28;7857;-65
2023/11/23 00:30:44;;;;;;;;;;;;;;;;;;1904603;28;7092;-65
2023/11/23 00:31:41;;;;;;;;;;;;;;;;;;1904669;28;7129;-65
2023/11/23 00:32:38;;;;;;;;;;;;;;;;;;1905179;28;8093;-65
2023/11/23 00:33:36;;;;;;;;;;;;;;;;;;1905412;28;7104;-65
2023/11/23 00:34:34;;;;;;;;;;;;;;;;;;1905848;28;7488;-65
2023/11/23 00:35:31;;;;;;;;;;;;;;;;;;1906077;28;7012;-66
2023/11/23 00:36:30;;;;;;;;;;;;;;;;;;1906173;28;7310;-65
2023/11/23 00:37:28;;;;;;;;;;;;;;;;;;1905577;28;7008;-65
2023/11/23 00:38:26;;;;;;;;;;;;;;;;;;1905599;28;7017;-65
2023/11/23 00:39:23;;;;;;;;;;;;;;;;;;1906407;28;7187;-65
2023/11/23 00:40:21;;;;;;;;;;;;;;;;;;1903734;28;7215;-65
2023/11/23 00:41:18;;;;;;;;;;;;;;;;;;1905513;28;7086;-65
2023/11/23 00:42:16;;;;;;;;;;;;;;;;;;1905482;28;7323;-65
2023/11/23 00:43:13;;;;;;;;;;;;;;;;;;1905889;28;7088;-65
2023/11/23 00:44:11;;;;;;;;;;;;;;;;;;1904881;28;7025;-65
2023/11/23 00:45:09;;;;;;;;;;;;;;;;;;1905066;28;7009;-65
2023/11/23 00:46:06;;;;;;;;;;;;;;;;;;1905270;28;8030;-66
2023/11/23 00:47:04;;;;;;;;;;;;;;;;;;1903682;28;8119;-65
2023/11/23 00:48:02;;;;;;;;;;;;;;;;;;1905402;28;7009;-65
2023/11/23 00:49:00;;;;;;;;;;;;;;;;;;1904963;28;7187;-64
2023/11/23 00:49:58;;;;;;;;;;;;;;;;;;1905756;28;7018;-65
2023/11/23 00:50:56;;;;;;;;;;;;;;;;;;1905589;28;7264;-65
2023/11/23 00:51:53;;;;;;;;;;;;;;;;;;1905897;28;8006;-65
2023/11/23 00:52:50;;;;;;;;;;;;;;;;;;1903004;28;7997;-65
2023/11/23 00:53:48;;;;;;;;;;;;;;;;;;1905144;28;7073;-65
2023/11/23 00:54:47;;;;;;;;;;;;;;;;;;1905675;28;7017;-65
2023/11/23 00:55:44;;;;;;;;;;;;;;;;;;1905041;28;7013;-65
2023/11/23 00:56:42;;;;;;;;;;;;;;;;;;1905766;28;7044;-65
2023/11/23 00:57:39;;;;;;;;;;;;;;;;;;1903867;28;7092;-65
2023/11/23 00:58:37;;;;;;;;;;;;;;;;;;1904884;28;7046;-66
2023/11/23 00:59:34;;;;;;;;;;;;;;;;;;1905283;28;7025;-65
2023/11/23 01:00:31;;;;;;;;;;;;;;;;;;1905137;28;7008;-65
2023/11/23 01:01:29;;;;;;;;;;;;;;;;;;1905811;28;7319;-66
2023/11/23 01:02:28;;;;;;;;;;;;;;;;;;1905695;28;7009;-65
2023/11/23 01:03:26;;;;;;;;;;;;;;;;;;1905623;28;7012;-65
2023/11/23 01:04:24;;;;;;;;;;;;;;;;;;1905439;28;7996;-65
2023/11/23 01:05:21;;;;;;;;;;;;;;;;;;1904780;28;7017;-65
2023/11/23 01:06:18;;;;;;;;;;;;;;;;;;1905483;28;7009;-65
2023/11/23 01:07:16;;;;;;;;;;;;;;;;;;1903766;28;7013;-65
2023/11/23 01:08:14;;;;;;;;;;;;;;;;;;1905102;28;9068;-65
2023/11/23 01:09:12;;;;;;;;;;;;;;;;;;1904885;28;7285;-65
2023/11/23 01:10:10;;;;;;;;;;;;;;;;;;1905470;28;7155;-65
2023/11/23 01:11:09;;;;;;;;;;;;;;;;;;1905391;28;7204;-65
2023/11/23 01:12:08;;;;;;;;;;;;;;;;;;1905265;28;7656;-65
2023/11/23 01:13:06;;;;;;;;;;;;;;;;;;1905432;28;7033;-65
2023/11/23 01:14:03;;;;;;;;;;;;;;;;;;1904970;28;7117;-65
2023/11/23 01:15:02;;;;;;;;;;;;;;;;;;1905105;28;8049;-65
2023/11/23 01:16:02;;;;;;;;;;;;;;;;;;1904407;28;7153;-65
2023/11/23 01:16:59;;;;;;;;;;;;;;;;;;1905582;28;7017;-65
2023/11/23 01:17:57;;;;;;;;;;;;;;;;;;1905252;28;7009;-65
2023/11/23 01:18:55;;;;;;;;;;;;;;;;;;1904378;28;7048;-65
2023/11/23 01:19:52;;;;;;;;;;;;;;;;;;1903960;28;7096;-65
2023/11/23 01:20:50;;;;;;;;;;;;;;;;;;1904760;28;7006;-65
2023/11/23 01:21:47;;;;;;;;;;;;;;;;;;1904744;28;7045;-66
2023/11/23 01:22:45;;;;;;;;;;;;;;;;;;1904844;28;7012;-65
2023/11/23 01:23:42;;;;;;;;;;;;;;;;;;1905664;28;7116;-65
2023/11/23 01:24:40;;;;;;;;;;;;;;;;;;1905558;28;7013;-65
2023/11/23 01:25:38;;;;;;;;;;;;;;;;;;1905122;28;7008;-65
2023/11/23 01:26:35;;;;;;;;;;;;;;;;;;1904771;28;7012;-65
2023/11/23 01:27:33;;;;;;;;;;;;;;;;;;1904601;28;7008;-65
2023/11/23 01:28:30;;;;;;;;;;;;;;;;;;1905060;28;7000;-65
2023/11/23 01:29:28;;;;;;;;;;;;;;;;;;1905187;28;7009;-65
2023/11/23 01:30:25;;;;;;;;;;;;;;;;;;1904780;28;7095;-65
2023/11/23 01:31:22;;;;;;;;;;;;;;;;;;1904653;28;7150;-66
2023/11/23 01:32:20;;;;;;;;;;;;;;;;;;1905340;28;7317;-65
2023/11/23 01:33:17;;;;;;;;;;;;;;;;;;1904913;28;7105;-65
2023/11/23 01:34:18;;;;;;;;;;;;;;;;;;1904019;28;7025;-65
2023/11/23 01:35:16;;;;;;;;;;;;;;;;;;1904972;28;7011;-66
2023/11/23 01:36:13;;;;;;;;;;;;;;;;;;1903310;28;7009;-65
2023/11/23 01:37:12;;;;;;;;;;;;;;;;;;1904665;28;7041;-66
2023/11/23 01:38:10;;;;;;;;;;;;;;;;;;1904808;28;7198;-65
2023/11/23 01:39:07;;;;;;;;;;;;;;;;;;1905177;28;7088;-65
2023/11/23 01:40:06;;;;;;;;;;;;;;;;;;1904075;28;7095;-65
2023/11/23 01:41:03;;;;;;;;;;;;;;;;;;1904642;28;7037;-65
2023/11/23 01:42:01;;;;;;;;;;;;;;;;;;1904815;28;7249;-65
2023/11/23 01:43:02;;;;;;;;;;;;;;;;;;1904453;28;7013;-65
2023/11/23 01:43:59;;;;;;;;;;;;;;;;;;1905303;28;7092;-65
2023/11/23 01:44:57;;;;;;;;;;;;;;;;;;1904166;28;7012;-66
2023/11/23 01:45:54;;;;;;;;;;;;;;;;;;1904882;28;7120;-66
2023/11/23 01:46:53;;;;;;;;;;;;;;;;;;1905308;28;7012;-65
2023/11/23 01:47:50;;;;;;;;;;;;;;;;;;1904526;28;8075;-66
2023/11/23 01:48:50;;;;;;;;;;;;;;;;;;1904616;28;7020;-65
2023/11/23 01:49:49;;;;;;;;;;;;;;;;;;1904832;28;7012;-66
2023/11/23 01:50:48;;;;;;;;;;;;;;;;;;1904794;28;8056;-66
2023/11/23 01:51:46;;;;;;;;;;;;;;;;;;1904642;28;7011;-66
2023/11/23 01:52:43;;;;;;;;;;;;;;;;;;1904664;28;7041;-66
2023/11/23 01:53:41;;;;;;;;;;;;;;;;;;1905435;28;7012;-66
2023/11/23 01:54:39;;;;;;;;;;;;;;;;;;1905221;28;7015;-66
2023/11/23 01:55:37;;;;;;;;;;;;;;;;;;1896675;28;7191;-65
2023/11/23 01:56:35;;;;;;;;;;;;;;;;;;1898531;28;7013;-66
2023/11/23 01:57:40;;;;;;;;;;;;;;;;;;1903464;28;7013;-66
2023/11/23 01:58:38;;;;;;;;;;;;;;;;;;1904682;28;7137;-66
2023/11/23 01:59:36;;;;;;;;;;;;;;;;;;1904268;28;7100;-66
2023/11/23 02:00:33;;;;;;;;;;;;;;;;;;1904592;28;7008;-66
2023/11/23 02:01:31;;;;;;;;;;;;;;;;;;1904991;28;7116;-66
2023/11/23 02:02:29;;;;;;;;;;;;;;;;;;1905093;28;7021;-66
2023/11/23 02:03:27;;;;;;;;;;;;;;;;;;1904633;28;7021;-66
2023/11/23 02:04:24;;;;;;;;;;;;;;;;;;1904244;28;7012;-66
2023/11/23 02:05:25;;;;;;;;;;;;;;;;;;1904391;28;7999;-66
2023/11/23 02:06:22;;;;;;;;;;;;;;;;;;1904141;28;7009;-66
2023/11/23 02:07:20;;;;;;;;;;;;;;;;;;1904151;28;7342;-66
2023/11/23 02:08:17;;;;;;;;;;;;;;;;;;1905351;28;8017;-66
2023/11/23 02:09:15;;;;;;;;;;;;;;;;;;1905558;28;7017;-66
2023/11/23 02:10:12;;;;;;;;;;;;;;;;;;1904228;28;7046;-66
2023/11/23 02:11:10;;;;;;;;;;;;;;;;;;1904552;28;7092;-66
2023/11/23 02:12:09;;;;;;;;;;;;;;;;;;1905177;28;8137;-66
2023/11/23 02:13:07;;;;;;;;;;;;;;;;;;1905107;28;7153;-66
2023/11/23 02:14:06;;;;;;;;;;;;;;;;;;1903441;28;7207;-66
2023/11/23 02:15:04;;;;;;;;;;;;;;;;;;1904427;28;7091;-66
2023/11/23 02:16:02;;;;;;;;;;;;;;;;;;1905197;28;7103;-66
2023/11/23 02:17:14;;;;;;;;;;;;;;;;;;1904910;28;7148;-66
2023/11/23 02:18:12;;;;;;;;;;;;;;;;;;1905489;28;7309;-66
2023/11/23 02:19:10;;;;;;;;;;;;;;;;;;1904536;28;7045;-66
2023/11/23 02:20:09;;;;;;;;;;;;;;;;;;1904209;28;7069;-66
2023/11/23 02:21:09;;;;;;;;;;;;;;;;;;1904668;28;7083;-66
2023/11/23 02:22:07;;;;;;;;;;;;;;;;;;1905056;28;7127;-66
2023/11/23 02:23:04;;;;;;;;;;;;;;;;;;1904752;28;7105;-66
2023/11/23 02:24:06;;;;;;;;;;;;;;;;;;1904486;28;7172;-66
2023/11/23 02:25:06;;;;;;;;;;;;;;;;;;1903197;28;7114;-66
2023/11/23 02:26:04;;;;;;;;;;;;;;;;;;1904238;28;7120;-66
2023/11/23 02:27:02;;;;;;;;;;;;;;;;;;1904516;28;7028;-66
2023/11/23 02:28:00;;;;;;;;;;;;;;;;;;1904317;28;8201;-66
2023/11/23 02:28:58;;;;;;;;;;;;;;;;;;1904051;28;7169;-66
2023/11/23 02:29:55;;;;;;;;;;;;;;;;;;1903984;28;7205;-67
2023/11/23 02:30:53;;;;;;;;;;;;;;;;;;1904672;28;7147;-66
2023/11/23 02:31:50;;;;;;;;;;;;;;;;;;1896625;28;9793;-66
2023/11/23 02:32:49;;;;;;;;;;;;;;;;;;1896688;28;8125;-65
2023/11/23 02:33:47;;;;;;;;;;;;;;;;;;1904084;28;8024;-66
2023/11/23 02:34:44;;;;;;;;;;;;;;;;;;1904343;28;7138;-66
2023/11/23 02:35:42;;;;;;;;;;;;;;;;;;1904284;28;7011;-66
2023/11/23 02:36:39;;;;;;;;;;;;;;;;;;1903430;28;7013;-66
2023/11/23 02:37:36;;;;;;;;;;;;;;;;;;1904217;28;7095;-66
2023/11/23 02:38:36;;;;;;;;;;;;;;;;;;1904560;28;7049;-66
2023/11/23 02:39:34;;;;;;;;;;;;;;;;;;1904446;28;7108;-65
2023/11/23 02:40:31;;;;;;;;;;;;;;;;;;1905181;28;7056;-66
2023/11/23 02:41:29;;;;;;;;;;;;;;;;;;1903824;28;8119;-67
2023/11/23 02:42:27;;;;;;;;;;;;;;;;;;1905048;28;7219;-66
2023/11/23 02:43:25;;;;;;;;;;;;;;;;;;1904392;28;7008;-66
2023/11/23 02:44:23;;;;;;;;;;;;;;;;;;1902761;28;7121;-66
2023/11/23 02:45:20;;;;;;;;;;;;;;;;;;1904005;28;7017;-66
2023/11/23 02:46:18;;;;;;;;;;;;;;;;;;1904019;28;7088;-66
2023/11/23 02:47:15;;;;;;;;;;;;;;;;;;1903981;28;7152;-66
2023/11/23 02:48:13;;;;;;;;;;;;;;;;;;1904168;28;7004;-66
2023/11/23 02:49:10;;;;;;;;;;;;;;;;;;1904004;28;7116;-66
2023/11/23 02:50:09;;;;;;;;;;;;;;;;;;1904052;28;7089;-66
2023/11/23 02:51:06;;;;;;;;;;;;;;;;;;1904682;28;8269;-65
2023/11/23 02:52:04;;;;;;;;;;;;;;;;;;1902328;28;7104;-66
2023/11/23 02:53:03;;;;;;;;;;;;;;;;;;1904564;28;7085;-66
2023/11/23 02:54:01;;;;;;;;;;;;;;;;;;1903830;28;8047;-66
2023/11/23 02:54:58;;;;;;;;;;;;;;;;;;1903109;28;7025;-66
2023/11/23 02:55:56;;;;;;;;;;;;;;;;;;1904161;28;7017;-66
2023/11/23 02:56:53;;;;;;;;;;;;;;;;;;1904308;28;7013;-66
2023/11/23 02:57:51;;;;;;;;;;;;;;;;;;1904586;28;7095;-65
2023/11/23 02:58:48;;;;;;;;;;;;;;;;;;1904255;28;7009;-66
2023/11/23 02:59:46;;;;;;;;;;;;;;;;;;1904527;28;8085;-66
2023/11/23 03:00:43;;;;;;;;;;;;;;;;;;1904039;28;7244;-66
2023/11/23 03:01:43;;;;;;;;;;;;;;;;;;1904648;28;7013;-66
2023/11/23 03:02:41;;;;;;;;;;;;;;;;;;1904522;28;7041;-65
2023/11/23 03:03:39;;;;;;;;;;;;;;;;;;1904370;28;7114;-66
2023/11/23 03:04:37;;;;;;;;;;;;;;;;;;1904174;28;8080;-66
2023/11/23 03:05:34;;;;;;;;;;;;;;;;;;1903924;28;7017;-65
2023/11/23 03:06:32;;;;;;;;;;;;;;;;;;1903841;28;7113;-66
2023/11/23 03:07:29;;;;;;;;;;;;;;;;;;1904073;28;7016;-65
2023/11/23 03:08:27;;;;;;;;;;;;;;;;;;1904948;28;7095;-66
2023/11/23 03:09:25;;;;;;;;;;;;;;;;;;1904727;28;7036;-66
2023/11/23 03:10:22;;;;;;;;;;;;;;;;;;1902699;28;7370;-66
2023/11/23 03:11:26;;;;;;;;;;;;;;;;;;1923622;28;7438;-64
2023/11/23 03:12:25;;;;;;;;;;;;;;;;;;1918221;28;9372;-64
2023/11/23 03:13:24;;;;;;;;;;;;;;;;;;1919133;28;7044;-64
2023/11/23 03:14:21;;;;;;;;;;;;;;;;;;1917396;28;7009;-64
2023/11/23 03:15:19;;;;;;;;;;;;;;;;;;1919302;28;7012;-64
2023/11/23 03:16:17;;;;;;;;;;;;;;;;;;1916800;28;7489;-64
2023/11/23 03:17:14;;;;;;;;;;;;;;;;;;1918094;28;7076;-65
2023/11/23 03:18:12;;;;;;;;;;;;;;;;;;1912052;28;7016;-64
2023/11/23 03:19:10;;;;;;;;;;;;;;;;;;1910091;28;7099;-65
2023/11/23 03:20:10;;;;;;;;;;;;;;;;;;1912659;28;7052;-64
2023/11/23 03:21:09;;;;;;;;;;;;;;;;;;1914550;28;7017;-64
2023/11/23 03:22:07;;;;;;;;;;;;;;;;;;1911005;28;7356;-64
2023/11/23 03:23:04;;;;;;;;;;;;;;;;;;1911016;28;7048;-65
2023/11/23 03:24:02;;;;;;;;;;;;;;;;;;1910727;28;7327;-65
2023/11/23 03:24:59;;;;;;;;;;;;;;;;;;1910774;28;7957;-65
2023/11/23 03:25:58;;;;;;;;;;;;;;;;;;1910189;28;7049;-64
2023/11/23 03:26:55;;;;;;;;;;;;;;;;;;1912434;28;7013;-65
2023/11/23 03:27:53;;;;;;;;;;;;;;;;;;1910733;28;7091;-64
2023/11/23 03:28:50;;;;;;;;;;;;;;;;;;1910468;28;7201;-64
2023/11/23 03:29:48;;;;;;;;;;;;;;;;;;1912114;28;7096;-64
2023/11/23 03:30:45;;;;;;;;;;;;;;;;;;1915263;28;7368;-65
2023/11/23 03:31:42;;;;;;;;;;;;;;;;;;1913403;28;7025;-65
2023/11/23 03:32:40;;;;;;;;;;;;;;;;;;1917734;28;7088;-64
2023/11/23 03:33:37;;;;;;;;;;;;;;;;;;1912868;28;7091;-67
2023/11/23 03:34:35;;;;;;;;;;;;;;;;;;1912251;28;7326;-66
2023/11/23 03:35:32;;;;;;;;;;;;;;;;;;1916974;28;7009;-66
2023/11/23 03:36:30;;;;;;;;;;;;;;;;;;1918479;28;7005;-66
2023/11/23 03:37:28;;;;;;;;;;;;;;;;;;1916263;28;7112;-67
2023/11/23 03:38:25;;;;;;;;;;;;;;;;;;1910600;28;7346;-64
2023/11/23 03:39:22;;;;;;;;;;;;;;;;;;1912612;28;7116;-64
2023/11/23 03:40:20;;;;;;;;;;;;;;;;;;1917911;28;7016;-64
2023/11/23 03:41:17;;;;;;;;;;;;;;;;;;1911973;28;7039;-64
2023/11/23 03:42:15;;;;;;;;;;;;;;;;;;1914495;28;7090;-65
2023/11/23 03:43:12;;;;;;;;;;;;;;;;;;1917944;28;8045;-64
2023/11/23 03:44:09;;;;;;;;;;;;;;;;;;1917948;28;7020;-64
2023/11/23 03:45:07;;;;;;;;;;;;;;;;;;1914662;28;7174;-65
2023/11/23 03:46:05;;;;;;;;;;;;;;;;;;1909912;28;7013;-64
2023/11/23 03:47:02;;;;;;;;;;;;;;;;;;1911848;28;7319;-66
2023/11/23 03:48:00;;;;;;;;;;;;;;;;;;1910280;28;7021;-66
2023/11/23 03:48:57;;;;;;;;;;;;;;;;;;1925014;28;7390;-64
2023/11/23 03:49:56;;;;;;;;;;;;;;;;;;1932002;28;7271;-64
2023/11/23 03:50:53;;;;;;;;;;;;;;;;;;1919785;28;7095;-66
2023/11/23 03:51:51;;;;;;;;;;;;;;;;;;1910763;28;7091;-66
2023/11/23 03:52:48;;;;;;;;;;;;;;;;;;1917469;28;7013;-66
2023/11/23 03:53:46;;;;;;;;;;;;;;;;;;1912439;28;7307;-66
2023/11/23 03:54:43;;;;;;;;;;;;;;;;;;1910510;28;7061;-66
2023/11/23 03:55:40;;;;;;;;;;;;;;;;;;1910627;28;7008;-66
2023/11/23 03:56:38;;;;;;;;;;;;;;;;;;1911077;28;7108;-66
2023/11/23 03:57:37;;;;;;;;;;;;;;;;;;1914619;28;7086;-66
2023/11/23 03:58:35;;;;;;;;;;;;;;;;;;1910441;28;7092;-66
2023/11/23 03:59:32;;;;;;;;;;;;;;;;;;1913418;28;7030;-65
2023/11/23 04:00:29;;;;;;;;;;;;;;;;;;1915360;28;7004;-66
2023/11/23 04:01:27;;;;;;;;;;;;;;;;;;1909958;28;7148;-66
2023/11/23 04:02:24;;;;;;;;;;;;;;;;;;1914786;28;8369;-66
2023/11/23 04:03:22;;;;;;;;;;;;;;;;;;1909275;28;7124;-66
2023/11/23 04:04:19;;;;;;;;;;;;;;;;;;1925120;28;7013;-66
2023/11/23 04:05:20;;;;;;;;;;;;;;;;;;1930566;28;7012;-66
2023/11/23 04:06:17;;;;;;;;;;;;;;;;;;1918500;28;7016;-66
2023/11/23 04:07:15;;;;;;;;;;;;;;;;;;1915147;28;7115;-66
2023/11/23 04:08:12;;;;;;;;;;;;;;;;;;1932744;28;7308;-66
2023/11/23 04:09:10;;;;;;;;;;;;;;;;;;1931919;28;7305;-66
2023/11/23 04:10:07;;;;;;;;;;;;;;;;;;1919295;28;7322;-66
2023/11/23 04:11:05;;;;;;;;;;;;;;;;;;1915819;28;7032;-66
2023/11/23 04:12:02;;;;;;;;;;;;;;;;;;1915996;28;7024;-65
2023/11/23 04:13:00;;;;;;;;;;;;;;;;;;1917585;28;7013;-66
2023/11/23 04:13:57;;;;;;;;;;;;;;;;;;1917654;28;8045;-66
2023/11/23 04:14:55;;;;;;;;;;;;;;;;;;1914981;28;7008;-66
2023/11/23 04:15:53;;;;;;;;;;;;;;;;;;1909847;28;7118;-66
2023/11/23 04:16:50;;;;;;;;;;;;;;;;;;1909731;28;7317;-66
2023/11/23 04:17:48;;;;;;;;;;;;;;;;;;1921249;28;8947;-66
2023/11/23 04:18:46;;;;;;;;;;;;;;;;;;1917485;28;7119;-66
2023/11/23 04:19:43;;;;;;;;;;;;;;;;;;1914962;28;7008;-66
2023/11/23 04:20:41;;;;;;;;;;;;;;;;;;1917522;28;7041;-66
2023/11/23 04:21:38;;;;;;;;;;;;;;;;;;1913852;28;7088;-66
2023/11/23 04:22:36;;;;;;;;;;;;;;;;;;1906575;28;7012;-66
2023/11/23 04:23:33;;;;;;;;;;;;;;;;;;1905083;28;8138;-66
2023/11/23 04:24:31;;;;;;;;;;;;;;;;;;1904590;28;7109;-66
2023/11/23 04:25:28;;;;;;;;;;;;;;;;;;1905781;28;7087;-66
2023/11/23 04:26:26;;;;;;;;;;;;;;;;;;1909723;28;8049;-66
2023/11/23 04:27:23;;;;;;;;;;;;;;;;;;1908134;28;7140;-66
2023/11/23 04:28:21;;;;;;;;;;;;;;;;;;1904891;28;7009;-66
2023/11/23 04:29:19;;;;;;;;;;;;;;;;;;1912017;28;7100;-66
2023/11/23 04:30:16;;;;;;;;;;;;;;;;;;1918228;28;7040;-66
2023/11/23 04:31:14;;;;;;;;;;;;;;;;;;1913176;28;7005;-66
2023/11/23 04:32:11;;;;;;;;;;;;;;;;;;1912407;28;7009;-66
2023/11/23 04:33:08;;;;;;;;;;;;;;;;;;1912027;28;8007;-66
2023/11/23 04:34:06;;;;;;;;;;;;;;;;;;1906299;28;7105;-66
2023/11/23 04:35:04;;;;;;;;;;;;;;;;;;1903815;28;7037;-66
2023/11/23 04:36:03;;;;;;;;;;;;;;;;;;1906519;28;7112;-66
2023/11/23 04:37:01;;;;;;;;;;;;;;;;;;1904340;28;7083;-64
2023/11/23 04:37:58;;;;;;;;;;;;;;;;;;1911269;28;7038;-66
2023/11/23 04:38:56;;;;;;;;;;;;;;;;;;1913300;28;7112;-66
2023/11/23 04:39:53;;;;;;;;;;;;;;;;;;1904262;28;7045;-66
2023/11/23 04:40:51;;;;;;;;;;;;;;;;;;1908742;28;7028;-66
2023/11/23 04:41:48;;;;;;;;;;;;;;;;;;1918237;28;7009;-66
2023/11/23 04:42:46;;;;;;;;;;;;;;;;;;1911932;28;7044;-66
2023/11/23 04:43:43;;;;;;;;;;;;;;;;;;1905848;28;7009;-66
2023/11/23 04:44:41;;;;;;;;;;;;;;;;;;1911561;28;7025;-66
2023/11/23 04:45:38;;;;;;;;;;;;;;;;;;1912792;28;7124;-66
2023/11/23 04:46:36;;;;;;;;;;;;;;;;;;1905285;28;7041;-66
2023/11/23 04:47:33;;;;;;;;;;;;;;;;;;1908542;28;7008;-66
2023/11/23 04:48:31;;;;;;;;;;;;;;;;;;1910998;28;7080;-66
2023/11/23 04:49:28;;;;;;;;;;;;;;;;;;1908018;28;7358;-66
2023/11/23 04:50:26;;;;;;;;;;;;;;;;;;1909776;28;7049;-66
2023/11/23 04:51:23;;;;;;;;;;;;;;;;;;1905067;28;7092;-66
2023/11/23 04:52:21;;;;;;;;;;;;;;;;;;1905677;28;7128;-66
2023/11/23 04:53:18;;;;;;;;;;;;;;;;;;1904811;28;7123;-66
2023/11/23 04:54:16;;;;;;;;;;;;;;;;;;1904442;28;7987;-66
2023/11/23 04:55:14;;;;;;;;;;;;;;;;;;1908027;28;7008;-66
2023/11/23 04:56:12;;;;;;;;;;;;;;;;;;1909781;28;7112;-66
2023/11/23 04:57:10;;;;;;;;;;;;;;;;;;1912497;28;7217;-66
2023/11/23 04:58:07;;;;;;;;;;;;;;;;;;1908425;28;7008;-66
2023/11/23 04:59:05;;;;;;;;;;;;;;;;;;1907863;28;7037;-66
2023/11/23 05:00:04;;;;;;;;;;;;;;;;;;1904678;28;8035;-66
2023/11/23 05:01:01;;;;;;;;;;;;;;;;;;1907374;28;7004;-66
2023/11/23 05:01:59;;;;;;;;;;;;;;;;;;1912623;28;7004;-66
2023/11/23 05:02:57;;;;;;;;;;;;;;;;;;1911442;28;7125;-66
2023/11/23 05:03:55;;;;;;;;;;;;;;;;;;1910829;28;7028;-66
2023/11/23 05:04:52;;;;;;;;;;;;;;;;;;1911909;28;7053;-66
2023/11/23 05:05:50;;;;;;;;;;;;;;;;;;1912576;28;7021;-66
2023/11/23 05:06:47;;;;;;;;;;;;;;;;;;1911585;28;7019;-66
2023/11/23 05:07:45;;;;;;;;;;;;;;;;;;1906509;28;7052;-66
2023/11/23 05:08:42;;;;;;;;;;;;;;;;;;1908654;28;7095;-66
2023/11/23 05:09:40;;;;;;;;;;;;;;;;;;1909920;28;8018;-67
2023/11/23 05:10:37;;;;;;;;;;;;;;;;;;1907907;28;7052;-65
2023/11/23 05:11:35;;;;;;;;;;;;;;;;;;1904544;28;7028;-65
2023/11/23 05:12:33;;;;;;;;;;;;;;;;;;1904915;28;7013;-66
2023/11/23 05:13:30;;;;;;;;;;;;;;;;;;1905021;28;7027;-66
2023/11/23 05:14:28;;;;;;;;;;;;;;;;;;1904427;28;7115;-65
2023/11/23 05:15:25;;;;;;;;;;;;;;;;;;1905009;28;7009;-66
2023/11/23 05:16:23;;;;;;;;;;;;;;;;;;1911727;28;7045;-66
2023/11/23 05:17:20;;;;;;;;;;;;;;;;;;1904768;28;7021;-66
2023/11/23 05:18:18;;;;;;;;;;;;;;;;;;1904499;28;7009;-66
2023/11/23 05:19:16;;;;;;;;;;;;;;;;;;1905470;28;7115;-66
2023/11/23 05:20:34;;;;;;;;;;;;;;;;;;1904902;28;7336;-66
2023/11/23 05:21:32;;;;;;;;;;;;;;;;;;1904309;28;7108;-66
2023/11/23 05:22:30;;;;;;;;;;;;;;;;;;1905377;28;7005;-66
2023/11/23 05:23:27;;;;;;;;;;;;;;;;;;1909790;28;7017;-66
2023/11/23 05:24:24;;;;;;;;;;;;;;;;;;1904136;28;7057;-66
2023/11/23 05:25:22;;;;;;;;;;;;;;;;;;1904652;28;7014;-66
2023/11/23 05:26:19;;;;;;;;;;;;;;;;;;1906706;28;7045;-66
2023/11/23 05:27:17;;;;;;;;;;;;;;;;;;1911539;28;7012;-66
2023/11/23 05:28:14;;;;;;;;;;;;;;;;;;1908367;28;7992;-65
2023/11/23 05:29:12;;;;;;;;;;;;;;;;;;1907596;28;7053;-66
2023/11/23 05:30:11;;;;;;;;;;;;;;;;;;1906684;28;7112;-66
2023/11/23 05:31:09;;;;;;;;;;;;;;;;;;1912776;28;7337;-66
2023/11/23 05:32:06;;;;;;;;;;;;;;;;;;1919238;28;8094;-66
2023/11/23 05:33:04;;;;;;;;;;;;;;;;;;1913494;28;7155;-66
2023/11/23 05:34:02;;;;;;;;;;;;;;;;;;1912186;28;7130;-66
2023/11/23 05:35:00;;;;;;;;;;;;;;;;;;1911938;28;7120;-66
2023/11/23 05:35:57;;;;;;;;;;;;;;;;;;1905882;28;7006;-66
2023/11/23 05:36:54;;;;;;;;;;;;;;;;;;1905254;28;7120;-65
2023/11/23 05:37:52;;;;;;;;;;;;;;;;;;1904965;28;7010;-66
2023/11/23 05:38:49;;;;;;;;;;;;;;;;;;1904627;28;7096;-67
2023/11/23 05:39:47;;;;;;;;;;;;;;;;;;1909866;28;7009;-66
2023/11/23 05:40:44;;;;;;;;;;;;;;;;;;1912607;28;7091;-66
2023/11/23 05:41:42;;;;;;;;;;;;;;;;;;1903772;28;7096;-66
2023/11/23 05:42:40;;;;;;;;;;;;;;;;;;1913047;28;7104;-66
2023/11/23 05:43:47;;;;;;;;;;;;;;;;;;1912911;28;8030;-66
2023/11/23 05:44:44;;;;;;;;;;;;;;;;;;1912713;28;7021;-66
2023/11/23 05:45:42;;;;;;;;;;;;;;;;;;1913252;28;7120;-66
2023/11/23 05:46:40;;;;;;;;;;;;;;;;;;1912483;28;7140;-66
2023/11/23 05:47:37;;;;;;;;;;;;;;;;;;1908205;28;8329;-65
2023/11/23 05:48:35;;;;;;;;;;;;;;;;;;1904787;28;7009;-66
2023/11/23 05:49:32;;;;;;;;;;;;;;;;;;1908025;28;7152;-66
2023/11/23 05:50:30;;;;;;;;;;;;;;;;;;1905304;28;7080;-66
2023/11/23 05:51:28;;;;;;;;;;;;;;;;;;1904425;28;7046;-65
2023/11/23 05:52:25;;;;;;;;;;;;;;;;;;1908616;28;7041;-66
2023/11/23 05:53:22;;;;;;;;;;;;;;;;;;1908529;28;8034;-66
2023/11/23 05:54:20;;;;;;;;;;;;;;;;;;1907589;28;7112;-66
2023/11/23 05:55:17;;;;;;;;;;;;;;;;;;1905568;28;7009;-66
2023/11/23 05:56:15;;;;;;;;;;;;;;;;;;1911655;28;7045;-66
2023/11/23 05:57:14;;;;;;;;;;;;;;;;;;1912320;28;7116;-66
2023/11/23 05:58:11;;;;;;;;;;;;;;;;;;1912379;28;7693;-67
2023/11/23 05:59:09;;;;;;;;;;;;;;;;;;1904614;28;8517;-65
2023/11/23 06:00:07;;;;;;;;;;;;;;;;;;1904777;28;7385;-66
2023/11/23 06:01:05;;;;;;;;;;;;;;;;;;1911656;28;7094;-66
2023/11/23 06:02:08;;;;;;;;;;;;;;;;;;1909508;28;7203;-66
2023/11/23 06:03:06;;;;;;;;;;;;;;;;;;1911799;28;7107;-66
2023/11/23 06:04:04;;;;;;;;;;;;;;;;;;1904307;28;7096;-67
2023/11/23 06:05:01;;;;;;;;;;;;;;;;;;1904271;28;7108;-66
2023/11/23 06:05:59;;;;;;;;;;;;;;;;;;1904539;28;8053;-66
2023/11/23 06:06:57;;;;;;;;;;;;;;;;;;1909588;28;7116;-66
2023/11/23 06:07:54;;;;;;;;;;;;;;;;;;1912509;28;7025;-66
2023/11/23 06:08:52;;;;;;;;;;;;;;;;;;1912353;28;7014;-66
2023/11/23 06:09:51;;;;;;;;;;;;;;;;;;1904903;28;7092;-66
2023/11/23 06:10:50;;;;;;;;;;;;;;;;;;1904522;28;7083;-67
2023/11/23 06:11:49;;;;;;;;;;;;;;;;;;1905420;28;7104;-66
2023/11/23 06:12:47;;;;;;;;;;;;;;;;;;1905080;28;7045;-66
2023/11/23 06:13:45;;;;;;;;;;;;;;;;;;1909786;28;7016;-66
2023/11/23 06:14:43;;;;;;;;;;;;;;;;;;1908209;28;7243;-67
2023/11/23 06:15:40;;;;;;;;;;;;;;;;;;1907537;28;8038;-66
2023/11/23 06:16:38;;;;;;;;;;;;;;;;;;1912306;28;7009;-66
2023/11/23 06:17:36;;;;;;;;;;;;;;;;;;1905565;28;7080;-66
2023/11/23 06:18:33;;;;;;;;;;;;;;;;;;1903333;28;7014;-66
2023/11/23 06:19:31;;;;;;;;;;;;;;;;;;1909053;28;8141;-66
2023/11/23 06:20:29;;;;;;;;;;;;;;;;;;1906543;28;7013;-66
2023/11/23 06:21:28;;;;;;;;;;;;;;;;;;1905065;28;7091;-66
2023/11/23 06:22:26;;;;;;;;;;;;;;;;;;1912011;28;7095;-66
2023/11/23 06:23:24;;;;;;;;;;;;;;;;;;1911963;28;8069;-66
2023/11/23 06:24:22;;;;;;;;;;;;;;;;;;1909183;28;7112;-66
2023/11/23 06:25:20;;;;;;;;;;;;;;;;;;1905465;28;7046;-66
2023/11/23 06:26:20;;;;;;;;;;;;;;;;;;1907810;28;7020;-66
2023/11/23 06:27:18;;;;;;;;;;;;;;;;;;1909439;28;7025;-66
2023/11/23 06:28:15;;;;;;;;;;;;;;;;;;1912604;28;7024;-66
2023/11/23 06:29:13;;;;;;;;;;;;;;;;;;1911650;28;7013;-66
2023/11/23 06:30:10;;;;;;;;;;;;;;;;;;1910288;28;8035;-67
2023/11/23 06:31:08;;;;;;;;;;;;;;;;;;1904309;28;7128;-66
2023/11/23 06:32:06;;;;;;;;;;;;;;;;;;1905399;28;7008;-66
2023/11/23 06:33:03;;;;;;;;;;;;;;;;;;1909465;28;7155;-66
2023/11/23 06:34:01;;;;;;;;;;;;;;;;;;1912104;28;8032;-66
2023/11/23 06:34:58;;;;;;;;;;;;;;;;;;1911706;28;7058;-66
2023/11/23 06:35:56;;;;;;;;;;;;;;;;;;1912130;28;7096;-66
2023/11/23 06:36:54;;;;;;;;;;;;;;;;;;1906184;28;7096;-66
2023/11/23 06:37:52;;;;;;;;;;;;;;;;;;1911872;28;7100;-66
2023/11/23 06:38:50;;;;;;;;;;;;;;;;;;1911885;28;8029;-65
2023/11/23 06:39:47;;;;;;;;;;;;;;;;;;1912398;28;7008;-66
2023/11/23 06:40:46;;;;;;;;;;;;;;;;;;1908017;28;7041;-66
2023/11/23 06:41:46;;;;;;;;;;;;;;;;;;1903481;28;7040;-65
2023/11/23 06:42:43;;;;;;;;;;;;;;;;;;1904705;28;8101;-66